LOWL Airport Information

Runway Information
Runway 09 Length 9843 ft width 197 ft
Elevation 978 ft Threshold 821 ft Heading 87
Runway 27 Length 9843 ft Width 197 ft
Elevation 963 ft Threshold 493 ft Heading 267
Runway 09L Length 2165 ft width 148 ft
Elevation 971 ft Threshold 0 ft Heading 87
Runway 27R Length 2165 ft Width 148 ft
Elevation 968 ft Threshold 0 ft Heading 267
Airport Frequencies
Type APP Name RADAR Frequency 129.625 MHZ
Type ATIS Name ATIS Frequency 128.125 MHZ
Type TWR Name TWR Frequency 118.8 MHZ
Airport Navaids
Airport Weather Information & NOTAM
ADDS - METARS form results

(0845 UTC 20 April 2018)
 
METAR text: LOWL 200820Z 08013KT CAVOK 20/10 Q1027 NOSIG
Conditions at: LOWL (LINZ (CIV/MIL) , AT) observed 0820 UTC 20 April 2018
Temperature: 20.0°C (68°F)
Dewpoint: 10.0°C (50°F) [RH = 53%]
Pressure (altimeter): 30.32 inches Hg (1027.0 mb)
Winds: from the E (80 degrees) at 15 MPH (13 knots; 6.8 m/s)
Visibility: 6 or more miles (10+ km)
Ceiling: ceiling and visibility are OK
Clouds: unknown
Weather: no significant weather observed at this time

METAR text: LOWL 200750Z 08013KT CAVOK 19/10 Q1027 NOSIG
Conditions at: LOWL (LINZ (CIV/MIL) , AT) observed 0750 UTC 20 April 2018
Temperature: 19.0°C (66°F)
Dewpoint: 10.0°C (50°F) [RH = 56%]
Pressure (altimeter): 30.32 inches Hg (1027.0 mb)
Winds: from the E (80 degrees) at 15 MPH (13 knots; 6.8 m/s)
Visibility: 6 or more miles (10+ km)
Ceiling: ceiling and visibility are OK
Clouds: unknown
Weather: no significant weather observed at this time